createdAt,value
2022-11-18T00:01:32.340Z,6.61
2022-11-18T00:03:58.704Z,6.63
2022-11-18T00:06:27.361Z,6.69
2022-11-18T00:08:54.972Z,6.71
2022-11-18T00:11:23.663Z,6.52
2022-11-18T00:13:50.363Z,6.49
2022-11-18T00:16:16.683Z,6.48
2022-11-18T00:18:42.993Z,6.42
2022-11-18T00:21:11.941Z,6.24
2022-11-18T00:23:39.212Z,6.36
2022-11-18T00:26:14.864Z,6.27
2022-11-18T00:28:41.799Z,6.19
2022-11-18T00:31:11.349Z,6.27
2022-11-18T00:33:38.271Z,6.11
2022-11-18T00:36:06.343Z,5.85
2022-11-18T00:38:32.898Z,5.91
2022-11-18T00:41:07.480Z,5.98
2022-11-18T00:43:34.350Z,5.66
2022-11-18T00:46:01.167Z,5.69
2022-11-18T00:48:27.932Z,5.57
2022-11-18T00:50:56.969Z,5.65
2022-11-18T00:53:25.109Z,5.53
2022-11-18T00:55:51.893Z,5.75
2022-11-18T00:58:18.918Z,5.78
2022-11-18T01:00:50.715Z,5.61
2022-11-18T01:03:18.096Z,5.70
2022-11-18T01:05:44.459Z,5.55
2022-11-18T01:08:12.375Z,5.56
2022-11-18T01:10:40.449Z,5.84
2022-11-18T01:13:10.950Z,5.90
2022-11-18T01:15:42.322Z,5.66
2022-11-18T01:18:09.325Z,5.41
2022-11-18T01:20:36.292Z,5.16
2022-11-18T01:23:03.269Z,5.04
2022-11-18T01:25:30.298Z,5.01
2022-11-18T01:27:57.055Z,4.97
2022-11-18T01:30:23.860Z,5.33
2022-11-18T01:32:50.197Z,5.49
2022-11-18T01:35:16.608Z,5.61
2022-11-18T01:37:42.930Z,5.56
2022-11-18T01:40:10.624Z,5.65
2022-11-18T01:42:38.259Z,5.64
2022-11-18T01:45:26.497Z,5.74
2022-11-18T01:48:08.151Z,5.80
2022-11-18T01:50:38.608Z,5.93
2022-11-18T01:53:10.212Z,5.94
2022-11-18T01:55:41.362Z,5.92
2022-11-18T01:58:20.441Z,5.51
2022-11-18T02:00:46.768Z,5.88
2022-11-18T02:03:14.576Z,5.96
2022-11-18T02:05:43.875Z,5.94
2022-11-18T02:08:10.313Z,5.85
2022-11-18T02:10:36.620Z,5.72
2022-11-18T02:13:03.126Z,5.63
2022-11-18T02:15:51.965Z,5.71
2022-11-18T02:18:39.748Z,5.60
2022-11-18T02:21:19.892Z,5.41
2022-11-18T02:24:10.298Z,5.44
2022-11-18T02:26:52.238Z,5.62
2022-11-18T02:29:24.323Z,5.60
2022-11-18T02:32:06.668Z,5.37
2022-11-18T02:34:44.906Z,5.54
2022-11-18T02:37:21.417Z,5.68
2022-11-18T02:40:09.050Z,5.70
2022-11-18T02:42:37.897Z,5.94
2022-11-18T02:45:08.811Z,6.08
2022-11-18T02:47:37.427Z,6.14
2022-11-18T02:50:08.989Z,5.91
2022-11-18T02:52:38.842Z,6.04
2022-11-18T02:55:08.932Z,6.09
2022-11-18T02:57:37.577Z,6.14
2022-11-18T03:00:04.387Z,5.71
2022-11-18T03:02:47.875Z,5.66
2022-11-18T03:05:26.175Z,5.79
2022-11-18T03:08:02.433Z,5.67
2022-11-18T03:10:35.677Z,5.52
2022-11-18T03:13:08.015Z,5.46
2022-11-18T03:15:46.658Z,5.42
2022-11-18T03:18:25.293Z,5.84
2022-11-18T03:20:58.900Z,5.87
2022-11-18T03:23:34.480Z,5.84
2022-11-18T03:26:14.143Z,5.79
2022-11-18T03:28:52.989Z,5.78
2022-11-18T03:31:30.364Z,5.86
2022-11-18T03:34:01.903Z,5.99
2022-11-18T03:36:32.455Z,5.99
2022-11-18T03:39:03.060Z,5.88
2022-11-18T03:41:35.267Z,5.82
2022-11-18T03:44:10.514Z,5.97
2022-11-18T03:46:44.622Z,6.05
2022-11-18T03:49:20.664Z,6.17
2022-11-18T03:51:53.763Z,6.14
2022-11-18T03:54:23.645Z,6.02
2022-11-18T03:56:58.269Z,5.88
2022-11-18T03:59:28.482Z,5.84
2022-11-18T04:01:59.778Z,5.75
2022-11-18T04:04:27.558Z,5.72
2022-11-18T04:07:04.059Z,5.51
2022-11-18T04:09:37.218Z,5.32
2022-11-18T04:12:08.832Z,5.23
2022-11-18T04:14:37.855Z,5.08
2022-11-18T04:17:14.603Z,5.11
2022-11-18T04:19:41.470Z,5.10
2022-11-18T04:22:08.801Z,5.16
2022-11-18T04:24:35.337Z,5.31
2022-11-18T04:27:03.399Z,5.54
2022-11-18T04:29:31.010Z,5.57
2022-11-18T04:31:57.522Z,5.47
2022-11-18T04:34:23.832Z,5.38
2022-11-18T04:36:50.201Z,5.28
2022-11-18T04:39:17.680Z,5.33
2022-11-18T04:41:45.283Z,5.52
2022-11-18T04:44:11.727Z,5.66
2022-11-18T04:46:38.267Z,5.75
2022-11-18T04:49:04.608Z,5.71
2022-11-18T04:51:30.896Z,5.73
2022-11-18T04:53:57.217Z,5.95
2022-11-18T04:56:23.537Z,6.28
2022-11-18T04:58:49.899Z,6.22
2022-11-18T05:01:16.267Z,5.84
2022-11-18T05:03:47.692Z,5.65
2022-11-18T05:06:16.769Z,5.58
2022-11-18T05:08:43.194Z,5.74
2022-11-18T05:11:09.537Z,6.06
2022-11-18T05:13:35.869Z,6.19
2022-11-18T05:16:02.183Z,6.20
2022-11-18T05:18:28.485Z,6.19
2022-11-18T05:20:54.796Z,6.34
2022-11-18T05:23:21.101Z,6.26
2022-11-18T05:25:47.424Z,6.42
2022-11-18T05:28:13.721Z,6.41
2022-11-18T05:30:40.043Z,6.40
2022-11-18T05:33:06.374Z,6.40
2022-11-18T05:35:32.702Z,5.98
2022-11-18T05:38:01.058Z,5.82
2022-11-18T05:40:27.374Z,5.80
2022-11-18T05:42:53.674Z,6.15
2022-11-18T05:45:20.024Z,6.10
2022-11-18T05:47:46.319Z,6.16
2022-11-18T05:50:16.065Z,6.32
2022-11-18T05:52:43.614Z,6.44
2022-11-18T05:55:12.040Z,6.52
2022-11-18T05:57:38.340Z,6.17
2022-11-18T06:00:05.131Z,6.15
2022-11-18T06:02:31.536Z,6.08
2022-11-18T06:05:01.816Z,5.93
2022-11-18T06:07:34.639Z,5.98
2022-11-18T06:10:05.850Z,5.99
2022-11-18T06:12:38.442Z,5.89
2022-11-18T06:15:24.231Z,5.70
2022-11-18T06:18:07.042Z,5.70
2022-11-18T06:20:36.029Z,5.99
2022-11-18T06:23:02.377Z,5.88
2022-11-18T06:25:29.386Z,5.86
2022-11-18T06:27:59.063Z,5.73
2022-11-18T06:30:25.362Z,5.80
2022-11-18T06:32:51.690Z,6.03
2022-11-18T06:35:18.004Z,5.87
2022-11-18T06:37:44.472Z,5.81
2022-11-18T06:40:11.520Z,6.10
2022-11-18T06:42:37.890Z,6.05
2022-11-18T06:45:05.239Z,5.98
2022-11-18T06:47:31.636Z,5.81
2022-11-18T06:49:57.952Z,5.66
2022-11-18T06:52:24.352Z,5.68
2022-11-18T06:54:50.670Z,5.79
2022-11-18T06:57:16.983Z,5.92
2022-11-18T06:59:43.288Z,5.75
2022-11-18T07:02:09.582Z,5.81
2022-11-18T07:04:35.892Z,5.72
2022-11-18T07:07:02.220Z,5.91
2022-11-18T07:09:28.544Z,5.87
2022-11-18T07:11:54.836Z,5.98
2022-11-18T07:14:21.140Z,5.69
2022-11-18T07:16:47.434Z,5.73
2022-11-18T07:19:14.231Z,5.70
2022-11-18T07:21:41.156Z,5.61
2022-11-18T07:24:08.955Z,5.84
2022-11-18T07:26:36.169Z,5.85
2022-11-18T07:29:02.490Z,5.82
2022-11-18T07:31:28.819Z,5.86
2022-11-18T07:33:55.412Z,5.80
2022-11-18T07:36:24.404Z,5.91
2022-11-18T07:38:52.374Z,5.95
2022-11-18T07:41:21.554Z,5.92
2022-11-18T07:43:48.998Z,5.80
2022-11-18T07:46:20.883Z,5.95
2022-11-18T07:48:50.014Z,5.75
2022-11-18T07:51:18.538Z,5.99
2022-11-18T07:53:45.294Z,5.33
2022-11-18T07:56:12.105Z,5.59
2022-11-18T07:58:39.317Z,5.35
2022-11-18T08:01:17.958Z,5.56
2022-11-18T08:03:45.819Z,5.70
2022-11-18T08:06:13.957Z,5.68
2022-11-18T08:08:40.631Z,5.85
2022-11-18T08:11:09.794Z,5.61
2022-11-18T08:13:36.636Z,5.66
2022-11-18T08:16:04.427Z,5.76
2022-11-18T08:18:32.386Z,5.72
2022-11-18T08:21:05.058Z,5.91
2022-11-18T08:23:35.038Z,5.78
2022-11-18T08:26:09.953Z,5.51
2022-11-18T08:28:37.034Z,5.42
2022-11-18T08:31:10.570Z,5.50
2022-11-18T08:33:37.282Z,5.76
2022-11-18T08:36:17.948Z,5.72
2022-11-18T08:38:44.743Z,5.73
2022-11-18T08:41:13.551Z,5.95
2022-11-18T08:43:39.876Z,6.08
2022-11-18T08:46:06.198Z,5.52
2022-11-18T08:48:32.570Z,5.28
2022-11-18T08:50:59.950Z,5.07
2022-11-18T08:53:26.273Z,5.01
2022-11-18T08:55:57.360Z,5.26
2022-11-18T08:58:24.577Z,5.30
2022-11-18T09:00:50.953Z,5.47
2022-11-18T09:03:17.302Z,5.43
2022-11-18T09:05:43.657Z,5.34
2022-11-18T09:08:10.017Z,5.36
2022-11-18T09:10:37.457Z,5.24
2022-11-18T09:13:25.254Z,5.51
2022-11-18T09:15:50.654Z,5.54
2022-11-18T09:18:16.968Z,5.60
2022-11-18T09:20:43.302Z,5.54
2022-11-18T09:23:09.638Z,5.40
2022-11-18T09:25:35.965Z,5.40
2022-11-18T09:28:02.273Z,5.66
2022-11-18T09:30:28.598Z,5.88
2022-11-18T09:32:54.931Z,5.83
2022-11-18T09:35:21.258Z,6.13
2022-11-18T09:37:47.576Z,6.11
2022-11-18T09:40:17.060Z,6.14
2022-11-18T09:43:05.419Z,5.96
2022-11-18T09:45:39.498Z,5.77
2022-11-18T09:48:22.668Z,5.62
2022-11-18T09:50:50.640Z,5.28
2022-11-18T09:53:22.787Z,5.17
2022-11-18T09:55:51.899Z,5.40
2022-11-18T09:58:26.750Z,5.19
2022-11-18T10:00:55.077Z,5.15
2022-11-18T10:03:33.852Z,5.06
2022-11-18T10:06:08.782Z,5.13
2022-11-18T10:09:01.348Z,5.11
2022-11-18T10:11:46.253Z,5.20
2022-11-18T10:14:46.791Z,5.25
2022-11-18T10:17:37.902Z,4.96
2022-11-18T10:20:25.726Z,5.01
2022-11-18T10:23:04.826Z,5.04
2022-11-18T10:25:31.191Z,5.12
2022-11-18T10:28:13.949Z,5.07
2022-11-18T10:30:40.416Z,5.11
2022-11-18T10:33:36.696Z,5.14
2022-11-18T10:36:19.422Z,4.96
2022-11-18T10:38:49.993Z,4.81
2022-11-18T10:41:20.378Z,4.61
2022-11-18T10:43:50.339Z,4.69
2022-11-18T10:46:30.334Z,4.76
2022-11-18T10:49:08.940Z,4.75
2022-11-18T10:51:44.385Z,4.76
2022-11-18T10:54:15.851Z,4.88
2022-11-18T10:56:53.509Z,4.86
2022-11-18T10:59:31.587Z,4.78
2022-11-18T11:02:19.669Z,4.84
2022-11-18T11:04:48.912Z,4.92
2022-11-18T11:07:33.038Z,4.84
2022-11-18T11:10:06.394Z,4.68
2022-11-18T11:12:39.254Z,4.74
2022-11-18T11:15:11.276Z,4.21
2022-11-18T11:17:42.579Z,4.22
2022-11-18T11:20:23.243Z,4.24
2022-11-18T11:22:49.624Z,4.24
2022-11-18T11:25:21.977Z,4.30
2022-11-18T11:28:21.822Z,4.39
2022-11-18T11:31:17.036Z,4.22
2022-11-18T11:34:25.811Z,4.46
2022-11-18T11:37:12.754Z,4.28
2022-11-18T11:39:57.358Z,4.03
2022-11-18T11:42:42.304Z,3.84
2022-11-18T11:45:20.856Z,3.90
2022-11-18T11:48:21.737Z,3.81
2022-11-18T11:51:06.182Z,3.95
2022-11-18T11:54:00.610Z,3.78
2022-11-18T11:56:47.369Z,3.75
2022-11-18T11:59:32.540Z,3.86
2022-11-18T12:02:01.846Z,3.84
2022-11-18T12:04:52.194Z,3.93
2022-11-18T12:07:22.120Z,3.55
2022-11-18T12:10:15.757Z,3.48
2022-11-18T12:13:06.933Z,3.56
2022-11-18T12:15:51.140Z,3.55
2022-11-18T12:18:38.407Z,3.66
2022-11-18T12:21:04.845Z,3.58
2022-11-18T12:23:32.302Z,3.42
2022-11-18T12:26:08.489Z,3.71
2022-11-18T12:28:40.545Z,3.88
2022-11-18T12:31:16.138Z,3.71
2022-11-18T12:34:18.254Z,3.71
2022-11-18T12:36:44.857Z,3.62
2022-11-18T12:39:26.294Z,3.39
2022-11-18T12:41:57.997Z,3.42
2022-11-18T12:44:27.601Z,3.55
2022-11-18T12:47:04.390Z,3.70
2022-11-18T12:49:30.688Z,3.68
2022-11-18T12:52:02.487Z,3.63
2022-11-18T12:54:37.373Z,3.73
2022-11-18T12:57:13.129Z,3.78
2022-11-18T12:59:39.365Z,3.77
2022-11-18T13:02:27.024Z,3.47
2022-11-18T13:05:20.745Z,3.34
2022-11-18T13:08:02.275Z,3.84
2022-11-18T13:10:32.994Z,3.63
2022-11-18T13:13:00.067Z,3.83
2022-11-18T13:15:27.572Z,3.46
2022-11-18T13:18:06.482Z,3.50
2022-11-18T13:20:35.622Z,3.40
2022-11-18T13:23:27.131Z,3.21
2022-11-18T13:25:54.324Z,3.21
2022-11-18T13:28:38.347Z,3.30
2022-11-18T13:31:19.679Z,3.25
2022-11-18T13:33:46.100Z,3.31
2022-11-18T13:36:31.631Z,3.30
2022-11-18T13:39:00.680Z,3.23
2022-11-18T13:41:29.051Z,3.22
2022-11-18T13:43:55.388Z,3.24
2022-11-18T13:46:22.533Z,2.98
2022-11-18T13:48:56.357Z,3.09
2022-11-18T13:51:23.420Z,2.96
2022-11-18T13:53:50.203Z,2.98
2022-11-18T13:56:24.305Z,2.92
2022-11-18T14:01:37.725Z,2.64
2022-11-18T14:04:06.859Z,2.88
2022-11-18T14:06:38.369Z,2.80
2022-11-18T14:09:20.172Z,2.60
2022-11-18T14:12:21.156Z,2.87
2022-11-18T14:14:47.629Z,2.79
2022-11-18T14:17:27.558Z,3.00
2022-11-18T14:19:58.728Z,3.25
2022-11-18T14:22:27.588Z,3.30
2022-11-18T14:24:59.817Z,2.99
2022-11-18T14:27:43.065Z,3.10
2022-11-18T14:30:39.510Z,2.84
2022-11-18T14:33:05.793Z,2.75
2022-11-18T14:35:34.767Z,2.93
2022-11-18T14:38:35.546Z,2.69
2022-11-18T14:40:57.930Z,2.60
2022-11-18T14:43:24.967Z,2.74
2022-11-18T14:45:54.244Z,2.47
2022-11-18T14:48:22.718Z,2.62
2022-11-18T14:50:49.105Z,2.47
2022-11-18T14:53:15.427Z,2.61
2022-11-18T14:55:41.852Z,2.47
2022-11-18T14:58:15.025Z,2.39
2022-11-18T15:00:42.652Z,2.34
2022-11-18T15:03:09.229Z,2.18
2022-11-18T15:05:35.877Z,2.33
2022-11-18T15:08:02.725Z,2.07
2022-11-18T15:10:29.493Z,2.38
2022-11-18T15:12:55.800Z,2.16
2022-11-18T15:15:22.183Z,2.14
2022-11-18T15:17:53.627Z,2.01
2022-11-18T15:20:22.145Z,2.12
2022-11-18T15:22:48.678Z,2.31
2022-11-18T15:25:15.105Z,2.14
2022-11-18T15:27:41.705Z,2.20
2022-11-18T15:30:10.664Z,2.24
2022-11-18T15:32:36.965Z,2.14
2022-11-18T15:35:03.319Z,2.20
2022-11-18T15:37:29.664Z,2.23
2022-11-18T15:39:55.993Z,2.36
2022-11-18T15:42:23.567Z,2.35
2022-11-18T15:44:50.040Z,2.28
2022-11-18T15:47:16.342Z,2.07
2022-11-18T15:49:42.744Z,1.66
2022-11-18T15:52:10.418Z,1.88
2022-11-18T15:54:37.768Z,1.93
2022-11-18T15:57:04.393Z,1.84
2022-11-18T15:59:30.805Z,1.78
2022-11-18T16:01:57.114Z,1.77
2022-11-18T16:04:23.538Z,1.96
2022-11-18T16:06:50.028Z,1.72
2022-11-18T16:09:17.901Z,1.63
2022-11-18T16:11:44.566Z,1.68
2022-11-18T16:14:12.846Z,1.69
2022-11-18T16:16:41.496Z,1.53
2022-11-18T16:19:10.309Z,1.46
2022-11-18T16:21:39.151Z,1.45
2022-11-18T16:24:07.454Z,1.41
2022-11-18T16:26:34.712Z,1.43
2022-11-18T16:29:01.425Z,1.56
2022-11-18T16:31:27.780Z,1.43
2022-11-18T16:33:54.069Z,1.42
2022-11-18T16:36:27.426Z,1.45
2022-11-18T16:38:54.411Z,1.35
2022-11-18T16:41:20.754Z,1.39
2022-11-18T16:43:48.932Z,1.42
2022-11-18T16:46:15.242Z,1.42
2022-11-18T16:48:41.720Z,1.23
2022-11-18T16:51:18.648Z,1.42
2022-11-18T16:53:56.333Z,1.17
2022-11-18T16:56:28.245Z,1.15
2022-11-18T16:58:57.567Z,1.28
2022-11-18T17:01:29.171Z,1.23
2022-11-18T17:03:57.048Z,1.17
2022-11-18T17:06:24.906Z,1.03
2022-11-18T17:08:51.634Z,1.02
2022-11-18T17:11:18.627Z,1.29
2022-11-18T17:13:45.153Z,1.17
2022-11-18T17:16:14.197Z,1.02
2022-11-18T17:18:40.954Z,1.05
2022-11-18T17:21:13.432Z,1.20
2022-11-18T17:23:40.715Z,1.19
2022-11-18T17:26:08.357Z,1.43
2022-11-18T17:28:36.805Z,1.22
2022-11-18T17:31:08.378Z,0.96
2022-11-18T17:33:34.972Z,1.02
2022-11-18T17:36:03.640Z,0.88
2022-11-18T17:38:31.132Z,0.93
2022-11-18T17:40:58.022Z,1.10
2022-11-18T17:43:25.843Z,1.10
2022-11-18T17:45:53.818Z,0.88
2022-11-18T17:48:21.467Z,0.98
2022-11-18T17:50:48.148Z,1.01
2022-11-18T17:53:15.553Z,0.96
2022-11-18T17:55:42.043Z,0.99
2022-11-18T17:58:09.457Z,1.11
2022-11-18T18:00:37.165Z,1.13
2022-11-18T18:03:04.469Z,0.70
2022-11-18T18:05:31.442Z,0.73
2022-11-18T18:07:59.034Z,0.85
2022-11-18T18:10:26.329Z,0.66
2022-11-18T18:12:52.683Z,0.83
2022-11-18T18:15:19.014Z,0.88
2022-11-18T18:17:47.055Z,0.96
2022-11-18T18:20:13.555Z,0.97
2022-11-18T18:22:39.885Z,0.72
2022-11-18T18:25:06.801Z,0.75
2022-11-18T18:27:33.118Z,0.65
2022-11-18T18:29:59.495Z,0.73
2022-11-18T18:32:25.883Z,0.78
2022-11-18T18:34:52.179Z,0.61
2022-11-18T18:37:18.514Z,0.67
2022-11-18T18:39:44.818Z,0.76
2022-11-18T18:42:11.210Z,0.60
2022-11-18T18:44:37.518Z,0.85
2022-11-18T18:47:03.853Z,0.68
2022-11-18T18:49:30.853Z,0.49
2022-11-18T18:51:57.186Z,0.54
2022-11-18T18:54:23.521Z,0.45
2022-11-18T18:56:49.845Z,0.50
2022-11-18T18:59:16.259Z,0.60
2022-11-18T19:01:42.749Z,0.17
2022-11-18T19:04:11.527Z,0.51
2022-11-18T19:09:26.419Z,0.62
2022-11-18T19:11:53.197Z,0.48
2022-11-18T19:14:20.303Z,0.26
2022-11-18T19:16:47.648Z,0.49
2022-11-18T19:19:19.861Z,0.52
2022-11-18T19:21:46.197Z,0.53
2022-11-18T19:24:34.741Z,0.43
2022-11-18T19:26:59.422Z,0.36
2022-11-18T19:31:53.405Z,0.21
2022-11-18T19:34:20.466Z,0.35
2022-11-18T19:36:46.997Z,0.42
2022-11-18T19:39:13.451Z,0.66
2022-11-18T19:41:39.793Z,0.29
2022-11-18T19:44:06.114Z,0.31
2022-11-18T19:46:32.547Z,-0.05
2022-11-18T19:48:59.011Z,-0.08
2022-11-18T19:51:25.658Z,-0.01
2022-11-18T19:53:54.625Z,0.05
2022-11-18T19:56:24.875Z,0.20
2022-11-18T19:58:51.226Z,0.49
2022-11-18T20:01:20.171Z,0.35
2022-11-18T20:03:48.267Z,0.33
2022-11-18T20:06:16.314Z,0.32
2022-11-18T20:08:43.553Z,0.32
2022-11-18T20:11:12.158Z,0.07
2022-11-18T20:13:39.872Z,0.28
2022-11-18T20:16:07.797Z,0.41
2022-11-18T20:18:35.245Z,0.28
2022-11-18T20:21:13.289Z,0.38
2022-11-18T20:23:39.585Z,0.22
2022-11-18T20:26:11.223Z,0.25
2022-11-18T20:28:39.598Z,0.21
2022-11-18T20:31:09.292Z,0.23
2022-11-18T20:33:37.585Z,0.36
2022-11-18T20:36:12.527Z,0.46
2022-11-18T20:38:40.486Z,0.32
2022-11-18T20:41:09.096Z,0.22
2022-11-18T20:43:36.727Z,0.02
2022-11-18T20:46:04.734Z,-0.14
2022-11-18T20:48:31.097Z,-0.20
2022-11-18T20:50:58.068Z,-0.06
2022-11-18T20:53:24.426Z,0.17
2022-11-18T20:55:51.224Z,0.03
2022-11-18T20:58:18.084Z,0.16
2022-11-18T21:00:44.830Z,0.03
2022-11-18T21:03:11.755Z,0.11
2022-11-18T21:05:42.606Z,0.31
2022-11-18T21:08:09.876Z,-0.07
2022-11-18T21:10:37.023Z,0.13
2022-11-18T21:13:03.685Z,0.18
2022-11-18T21:15:30.293Z,0.15
2022-11-18T21:17:56.593Z,0.11
2022-11-18T21:20:22.964Z,-0.17
2022-11-18T21:22:49.277Z,-0.20
2022-11-18T21:25:15.689Z,0.18
2022-11-18T21:27:41.980Z,0.04
2022-11-18T21:30:08.811Z,-0.06
2022-11-18T21:32:35.116Z,0.06
2022-11-18T21:35:01.417Z,-0.16
2022-11-18T21:37:27.733Z,-0.16
2022-11-18T21:39:54.015Z,-0.02
2022-11-18T21:42:20.327Z,-0.01
2022-11-18T21:44:46.632Z,-0.03
2022-11-18T21:47:12.984Z,-0.06
2022-11-18T21:49:39.312Z,-0.20
2022-11-18T21:52:05.642Z,-0.05
2022-11-18T21:54:31.959Z,-0.10
2022-11-18T21:56:58.268Z,0.02
2022-11-18T21:59:24.563Z,-0.15
2022-11-18T22:01:50.990Z,0.02
2022-11-18T22:04:17.298Z,-0.12
2022-11-18T22:06:43.676Z,-0.06
2022-11-18T22:09:09.988Z,-0.28
2022-11-18T22:11:36.315Z,-0.25
2022-11-18T22:14:02.658Z,-0.45
2022-11-18T22:16:28.999Z,-0.12
2022-11-18T22:18:59.166Z,-0.07
2022-11-18T22:21:28.831Z,-0.20
2022-11-18T22:23:59.288Z,-0.15
2022-11-18T22:26:25.634Z,-0.22
2022-11-18T22:28:53.649Z,-0.20
2022-11-18T22:31:22.195Z,0.09
2022-11-18T22:33:50.124Z,-0.04
2022-11-18T22:36:17.741Z,-0.25
2022-11-18T22:38:45.024Z,-0.38
2022-11-18T22:41:16.677Z,-0.19
2022-11-18T22:43:42.973Z,-0.17
2022-11-18T22:46:09.341Z,-0.37
2022-11-18T22:48:35.670Z,-0.18
2022-11-18T22:51:04.656Z,-0.20
2022-11-18T22:53:32.997Z,-0.18
2022-11-18T22:56:07.825Z,-0.05
2022-11-18T22:58:34.307Z,-0.36
2022-11-18T23:01:01.821Z,-0.28
2022-11-18T23:03:28.751Z,-0.20
2022-11-18T23:05:55.137Z,-0.41
2022-11-18T23:08:22.793Z,-0.24
2022-11-18T23:10:49.530Z,-0.28
2022-11-18T23:13:16.351Z,-0.34
2022-11-18T23:15:42.692Z,-0.24
2022-11-18T23:18:11.859Z,-0.39
2022-11-18T23:20:38.485Z,-0.33
2022-11-18T23:23:04.809Z,-0.24
2022-11-18T23:25:31.665Z,-0.25
2022-11-18T23:27:58.213Z,-0.14
2022-11-18T23:30:24.549Z,-0.08
2022-11-18T23:32:52.836Z,-0.16
2022-11-18T23:35:19.153Z,-0.45
2022-11-18T23:37:45.465Z,-0.29
2022-11-18T23:40:12.274Z,-0.16
2022-11-18T23:42:38.606Z,-0.29
2022-11-18T23:45:05.675Z,-0.31
2022-11-18T23:47:32.229Z,-0.18
2022-11-18T23:49:58.555Z,-0.16
2022-11-18T23:52:24.885Z,-0.26
2022-11-18T23:54:51.194Z,-0.24
2022-11-18T23:57:17.910Z,-0.12
2022-11-18T23:59:44.234Z,0.02
